Time;durP1;ratioP1;P1;durP2;ratioP2;P2;SDS_P1;SDS_P2;PMS_P1;PMS_P2;Temp;Humidity;BMP_temperature;BMP_pressure;BME280_temperature;BME280_humidity;BME280_pressure;Samples;Min_cycle;Max_cycle;Signal;HPM_P1;HPM_P2
2021/07/23 00:01:55;;;;;;;5.93;5.43;;;22.10;99.90;;;22.45;57.95;101508.41;4933205;28;99535;-53
2021/07/23 00:04:21;;;;;;;6.40;5.80;;;22.10;99.90;;;22.47;57.88;101514.53;4950635;28;97327;-51
2021/07/23 00:06:49;;;;;;;6.60;6.00;;;22.20;99.90;;;22.48;58.01;101510.88;4928976;28;105163;-50
2021/07/23 00:09:15;;;;;;;7.23;6.53;;;22.20;99.90;;;22.49;57.90;101507.22;4953444;28;98239;-55
2021/07/23 00:11:41;;;;;;;8.70;7.50;;;22.20;99.90;;;22.46;57.81;101511.00;4946734;28;97944;-51
2021/07/23 00:14:06;;;;;;;5.23;4.83;;;22.20;99.90;;;22.46;58.03;101510.13;4971548;28;96799;-53
2021/07/23 00:16:32;;;;;;;9.70;8.70;;;22.20;99.90;;;22.45;57.78;101500.34;4951213;28;97165;-48
2021/07/23 00:18:58;;;;;;;7.63;6.93;;;22.10;99.90;;;22.42;57.96;101503.22;4952011;28;99489;-49
2021/07/23 00:21:24;;;;;;;10.53;9.40;;;22.10;99.90;;;22.40;58.12;101502.47;4958089;28;107468;-53
2021/07/23 00:23:49;;;;;;;7.93;7.13;;;22.10;99.90;;;22.33;58.00;101506.59;4955703;28;97022;-54
2021/07/23 00:26:18;;;;;;;8.83;7.27;;;21.90;99.90;;;22.30;58.23;101490.69;4958181;28;97844;-49
2021/07/23 00:28:45;;;;;;;9.50;8.50;;;21.90;99.90;;;22.29;58.32;101499.72;4941811;28;98515;-50
2021/07/23 00:31:11;;;;;;;10.87;9.53;;;21.90;99.90;;;22.29;58.32;101499.72;4959609;28;98449;-51
2021/07/23 00:33:37;;;;;;;10.47;9.17;;;21.90;99.90;;;22.27;58.45;101497.97;4946074;28;97090;-52
2021/07/23 00:36:03;;;;;;;7.10;6.50;;;21.90;99.90;;;22.27;58.35;101495.28;4947764;28;98598;-49
2021/07/23 00:38:29;;;;;;;5.73;5.17;;;21.90;99.90;;;22.30;58.24;101493.38;4954840;28;97455;-48
2021/07/23 00:40:55;;;;;;;7.00;6.30;;;22.00;99.90;;;22.31;58.10;101489.72;4934954;28;97756;-51
2021/07/23 00:43:21;;;;;;;5.93;5.30;;;22.00;99.90;;;22.30;58.21;101501.44;4957883;28;97582;-49
2021/07/23 00:45:47;;;;;;;8.27;7.47;;;22.00;99.90;;;22.28;58.19;101498.88;4938933;28;98175;-50
2021/07/23 00:48:14;;;;;;;6.00;5.40;;;22.00;99.90;;;22.27;58.31;101497.97;4945995;28;100263;-51
2021/07/23 00:50:41;;;;;;;8.60;7.60;;;22.00;99.90;;;22.27;58.24;101497.13;4962059;28;98263;-50
2021/07/23 00:53:07;;;;;;;8.90;6.80;;;21.90;99.90;;;22.25;58.34;101491.00;4967917;28;96895;-51
2021/07/23 00:55:33;;;;;;;8.13;7.33;;;21.90;99.90;;;22.23;58.41;101490.25;4960217;28;107299;-49
2021/07/23 00:58:02;;;;;;;6.33;5.73;;;21.80;99.90;;;22.23;58.54;101491.13;4936536;28;97619;-48
2021/07/23 01:00:28;;;;;;;6.27;5.67;;;21.90;99.90;;;22.24;58.48;101498.22;4948527;28;97919;-48
2021/07/23 01:02:54;;;;;;;10.30;9.30;;;21.90;99.90;;;22.25;58.49;101499.94;4923551;28;97376;-50
2021/07/23 01:05:21;;;;;;;5.83;5.33;;;21.90;99.90;;;22.23;58.61;101491.13;4930016;28;97100;-48
2021/07/23 01:07:47;;;;;;;6.00;5.50;;;21.90;99.90;;;22.24;58.62;101491.97;4932241;28;97532;-48
2021/07/23 01:10:13;;;;;;;10.00;7.70;;;21.90;99.90;;;22.25;58.48;101491.88;4946896;28;97980;-49
2021/07/23 01:12:39;;;;;;;8.33;7.53;;;21.90;99.90;;;22.26;58.48;101490.03;4954987;28;97814;-48
2021/07/23 01:15:05;;;;;;;9.93;8.87;;;21.90;99.90;;;22.27;58.45;101487.22;4952073;28;97045;-51
2021/07/23 01:17:31;;;;;;;7.27;6.57;;;22.00;99.90;;;22.27;58.31;101479.19;4951756;28;97474;-49
2021/07/23 01:20:23;;;;;;;6.23;5.63;;;22.00;99.90;;;22.31;58.36;101490.59;4966720;28;99137;-53
2021/07/23 01:22:50;;;;;;;10.63;7.67;;;22.00;99.90;;;22.30;58.31;101479.94;4957121;28;96822;-51
2021/07/23 01:25:16;;;;;;;8.40;7.60;;;22.00;99.90;;;22.30;58.31;101474.56;4951829;28;96929;-52
2021/07/23 01:27:48;;;;;;;10.50;8.90;;;21.90;99.90;;;22.27;58.29;101476.50;4948185;28;97610;-48
2021/07/23 01:30:15;;;;;;;9.80;8.90;;;21.90;99.90;;;22.24;57.80;101476.72;4957852;28;97739;-50
2021/07/23 01:32:41;;;;;;;7.00;6.30;;;21.90;99.90;;;22.22;58.56;101467.91;4956554;28;97055;-48
2021/07/23 01:35:08;;;;;;;8.20;7.27;;;21.80;99.90;;;22.20;58.48;101472.53;4948645;28;97701;-50
2021/07/23 01:37:34;;;;;;;5.23;4.83;;;21.80;99.90;;;22.19;58.71;101478.88;4929850;28;97234;-48
2021/07/23 01:40:00;;;;;;;7.57;6.87;;;21.80;99.90;;;22.18;58.72;101471.78;4952182;28;98607;-48
2021/07/23 01:42:31;;;;;;;8.07;7.20;;;21.80;99.90;;;22.17;58.60;101480.81;4956777;28;97080;-48
2021/07/23 01:44:57;;;;;;;5.27;4.87;;;21.80;99.90;;;22.18;58.75;101471.78;4954651;28;97617;-48
2021/07/23 01:47:23;;;;;;;9.30;8.40;;;21.80;99.90;;;22.18;58.67;101471.78;4935064;28;97225;-57
2021/07/23 01:49:49;;;;;;;6.63;6.03;;;21.80;99.90;;;22.17;58.77;101477.28;4952664;28;101380;-50
2021/07/23 01:52:15;;;;;;;7.60;6.20;;;21.80;99.90;;;22.15;58.77;101477.41;4946516;28;98165;-54
2021/07/23 01:54:40;;;;;;;8.77;7.93;;;21.80;99.90;;;22.13;58.73;101473.97;4950144;28;97427;-50
2021/07/23 01:57:06;;;;;;;6.13;5.63;;;21.80;99.90;;;22.13;58.73;101473.97;4955444;28;98529;-50
2021/07/23 01:59:33;;;;;;;9.67;8.60;;;21.70;99.90;;;22.11;58.66;101477.69;4944776;28;99383;-52
2021/07/23 02:01:59;;;;;;;12.37;8.00;;;21.70;99.90;;;22.09;58.78;101476.94;4951387;28;96990;-50
2021/07/23 02:04:25;;;;;;;5.47;4.97;;;21.70;99.90;;;22.09;58.91;101485.88;4952380;28;97051;-52
2021/07/23 02:06:51;;;;;;;5.30;4.80;;;21.70;99.90;;;22.08;58.81;101481.47;4961774;28;97791;-49
2021/07/23 02:09:17;;;;;;;6.17;5.57;;;21.70;99.90;;;22.09;58.73;101477.81;4951747;28;99474;-55
2021/07/23 02:11:43;;;;;;;5.43;4.57;;;21.70;99.90;;;22.07;59.15;101477.06;4948074;28;97869;-50
2021/07/23 02:14:09;;;;;;;5.80;5.30;;;21.70;99.90;;;22.09;58.82;101477.81;4965267;28;97273;-52
2021/07/23 02:16:36;;;;;;;7.50;6.27;;;21.70;99.90;;;22.09;58.79;101472.44;4946731;28;97846;-57
2021/07/23 02:19:03;;;;;;;6.23;5.63;;;21.70;99.90;;;22.10;58.79;101474.16;4953654;28;97477;-47
2021/07/23 02:21:29;;;;;;;6.93;6.23;;;21.80;99.90;;;22.09;58.86;101477.81;4951713;28;97296;-47
2021/07/23 02:23:55;;;;;;;6.23;5.63;;;21.70;99.90;;;22.09;58.74;101469.75;4952923;28;103220;-48
2021/07/23 02:26:22;;;;;;;5.90;5.40;;;21.70;99.90;;;22.07;58.91;101463.63;4951813;28;108976;-49
2021/07/23 02:28:49;;;;;;;7.63;6.43;;;21.70;99.90;;;22.07;58.98;101465.47;4966683;28;99901;-48
2021/07/23 02:31:16;;;;;;;7.40;6.70;;;21.70;99.90;;;22.04;58.99;101463.81;4973211;28;97355;-47
2021/07/23 02:33:43;;;;;;;6.50;5.90;;;21.60;99.90;;;22.03;59.00;101462.09;4945939;28;97648;-48
2021/07/23 02:36:09;;;;;;;5.70;5.20;;;21.60;99.90;;;22.02;59.19;101463.06;4966651;28;97113;-48
2021/07/23 02:38:35;;;;;;;9.37;8.43;;;21.60;99.90;;;22.01;58.87;101457.81;4947314;28;96904;-50
2021/07/23 02:41:02;;;;;;;5.20;4.70;;;21.60;99.90;;;21.97;59.29;101457.16;4969338;28;97834;-48
2021/07/23 02:43:28;;;;;;;6.70;6.10;;;21.50;99.90;;;21.96;59.29;101461.66;4966283;28;97832;-48
2021/07/23 02:45:54;;;;;;;10.50;7.70;;;21.50;99.90;;;21.95;58.73;101459.09;4958148;28;97580;-48
2021/07/23 02:48:20;;;;;;;5.80;5.30;;;21.50;99.90;;;21.92;59.32;101457.50;4958560;28;99532;-48
2021/07/23 02:50:46;;;;;;;6.60;6.00;;;21.40;99.90;;;21.92;59.56;101453.94;4955054;28;97841;-54
2021/07/23 02:53:12;;;;;;;10.53;8.10;;;21.40;99.90;;;21.90;59.46;101455.88;4947534;28;97647;-54
2021/07/23 02:55:38;;;;;;;7.90;6.80;;;21.40;99.90;;;21.89;59.56;101454.16;4952228;28;110067;-52
2021/07/23 02:58:04;;;;;;;6.03;5.43;;;21.40;99.90;;;21.86;59.61;101443.66;4948669;28;103235;-52
2021/07/23 03:00:30;;;;;;;5.50;5.03;;;21.40;99.90;;;21.88;59.63;101447.94;4946772;28;96854;-52
2021/07/23 03:02:56;;;;;;;6.57;5.90;;;21.40;99.90;;;21.88;59.62;101441.72;4938971;28;97023;-53
2021/07/23 03:05:21;;;;;;;5.57;5.07;;;21.40;99.90;;;21.90;59.48;101445.13;4937240;28;97782;-55
2021/07/23 03:07:54;;;;;;;4.93;4.53;;;21.50;99.90;;;21.92;59.40;101437.81;4942430;28;104803;-55
2021/07/23 03:10:20;;;;;;;5.33;4.87;;;21.50;99.90;;;21.91;59.31;101442.34;4952351;28;98798;-54
2021/07/23 03:12:46;;;;;;;5.87;5.37;;;21.50;99.90;;;21.92;59.47;101443.19;4942891;28;97314;-55
2021/07/23 03:15:12;;;;;;;5.87;5.37;;;21.50;99.90;;;21.91;59.34;101447.72;4953530;28;97730;-53
2021/07/23 03:17:38;;;;;;;5.70;4.73;;;21.50;99.90;;;21.88;59.53;101436.34;4957079;28;101587;-54
2021/07/23 03:20:05;;;;;;;5.83;5.33;;;21.40;99.90;;;21.88;59.66;101439.88;4950235;28;98035;-50
2021/07/23 03:22:33;;;;;;;8.33;5.77;;;21.40;99.90;;;21.88;59.51;101436.34;4945084;28;97426;-49
2021/07/23 03:25:01;;;;;;;4.80;4.40;;;21.40;99.90;;;21.89;59.52;101440.75;4951459;28;98902;-50
2021/07/23 03:27:27;;;;;;;11.03;7.80;;;21.40;99.90;;;21.86;58.98;101438.28;4951372;28;97317;-50
2021/07/23 03:29:53;;;;;;;8.17;7.47;;;21.40;99.90;;;21.85;59.59;101436.56;4954445;28;99472;-51
2021/07/23 03:32:20;;;;;;;5.47;4.97;;;21.40;99.90;;;21.83;59.77;101433.09;4936755;28;97341;-50
2021/07/23 03:34:46;;;;;;;5.40;4.90;;;21.30;99.90;;;21.81;59.75;101429.66;4956323;28;97648;-49
2021/07/23 03:37:12;;;;;;;6.40;5.80;;;21.30;99.90;;;21.81;59.75;101437.72;4956873;28;97253;-49
2021/07/23 03:39:38;;;;;;;5.57;5.07;;;21.30;99.90;;;21.80;59.71;101434.19;4958542;28;99362;-49
2021/07/23 03:42:04;;;;;;;7.87;7.07;;;21.30;99.90;;;21.79;59.67;101432.47;4932615;28;98846;-49
2021/07/23 03:44:30;;;;;;;5.23;4.73;;;21.30;99.90;;;21.80;59.72;101438.69;4944199;28;97142;-50
2021/07/23 03:46:55;;;;;;;5.47;4.97;;;21.30;99.90;;;21.79;59.71;101431.59;4952727;28;97941;-48
2021/07/23 03:49:21;;;;;;;5.57;5.00;;;21.30;99.90;;;21.80;59.69;101433.31;4958574;28;96949;-49
2021/07/23 03:51:47;;;;;;;5.30;4.90;;;21.40;99.90;;;21.81;59.70;101429.66;4962996;28;97428;-48
2021/07/23 03:54:13;;;;;;;6.57;5.87;;;21.40;99.90;;;21.81;59.44;101426.97;4961762;28;98359;-48
2021/07/23 03:56:39;;;;;;;7.83;5.73;;;21.30;99.90;;;21.83;59.51;101425.91;4950753;28;97039;-47
2021/07/23 03:59:05;;;;;;;8.20;7.27;;;21.40;99.90;;;21.81;59.39;101427.84;4961420;28;108455;-48
2021/07/23 04:01:31;;;;;;;9.47;6.90;;;21.40;99.90;;;21.81;59.54;101429.66;4950073;28;97205;-49
2021/07/23 04:03:57;;;;;;;7.07;6.37;;;21.30;99.90;;;21.77;59.50;101428.16;4967261;28;97380;-48
2021/07/23 04:06:23;;;;;;;5.97;5.37;;;21.30;99.90;;;21.76;59.85;101429.13;4950022;28;99148;-53
2021/07/23 04:08:49;;;;;;;6.13;5.53;;;21.20;99.90;;;21.72;59.85;101420.44;4948901;28;97470;-49
2021/07/23 04:11:17;;;;;;;5.67;4.50;;;21.20;99.90;;;21.74;59.97;101425.72;4942843;28;97980;-48
2021/07/23 04:13:43;;;;;;;5.43;4.93;;;21.20;99.90;;;21.74;60.02;101423.88;4948355;28;99281;-48
2021/07/23 04:16:09;;;;;;;4.80;4.40;;;21.20;99.90;;;21.76;59.85;101421.94;4963682;28;98828;-47
2021/07/23 04:18:35;;;;;;;5.20;4.43;;;21.30;99.90;;;21.78;59.70;101421.81;4932930;28;97883;-48
2021/07/23 04:21:05;;;;;;;6.43;5.87;;;21.30;99.90;;;21.78;59.51;101419.16;4959010;28;97363;-48
2021/07/23 04:23:31;;;;;;;5.33;4.87;;;21.30;99.90;;;21.74;59.88;101420.34;4934957;28;99205;-50
2021/07/23 04:25:57;;;;;;;5.33;4.93;;;21.20;99.90;;;21.77;59.65;101417.44;4942068;28;97453;-49
2021/07/23 04:28:23;;;;;;;5.33;4.83;;;21.30;99.90;;;21.78;59.82;101416.47;4942696;28;97429;-56
2021/07/23 04:30:49;;;;;;;5.30;4.90;;;21.30;99.90;;;21.77;59.73;101422.81;4948259;28;97574;-48
2021/07/23 04:33:15;;;;;;;6.93;6.10;;;21.30;99.90;;;21.76;59.62;101421.94;4923941;28;98644;-48
2021/07/23 04:35:41;;;;;;;5.63;5.13;;;21.30;99.90;;;21.72;59.81;101419.59;4943898;28;97362;-47
2021/07/23 04:38:07;;;;;;;5.70;5.10;;;21.20;99.90;;;21.71;59.89;101417.88;4941009;28;97726;-48
2021/07/23 04:40:33;;;;;;;6.17;4.30;;;21.20;99.90;;;21.71;59.91;101424.09;4950888;28;97974;-48
2021/07/23 04:42:59;;;;;;;5.27;4.87;;;21.20;99.90;;;21.69;59.87;101426.88;4943788;28;98323;-48
2021/07/23 04:45:25;;;;;;;6.53;5.80;;;21.20;99.90;;;21.71;59.63;101428.63;4931462;28;97066;-50
2021/07/23 04:47:50;;;;;;;5.23;4.83;;;21.20;99.90;;;21.69;59.77;101424.19;4945886;28;97259;-48
2021/07/23 04:50:16;;;;;;;5.53;5.03;;;21.20;99.90;;;21.71;59.72;101417.88;4971193;28;97404;-52
2021/07/23 04:52:42;;;;;;;5.57;5.07;;;21.20;99.90;;;21.75;59.77;101422.06;4967065;28;102935;-52
2021/07/23 04:55:09;;;;;;;5.73;4.87;;;21.30;99.90;;;21.75;59.72;101425.59;4953372;28;114089;-51
2021/07/23 04:57:43;;;;;;;5.97;5.37;;;21.30;99.90;;;21.78;59.71;101424.50;4950655;28;97523;-51
2021/07/23 05:00:10;;;;;;;6.00;5.43;;;21.30;99.90;;;21.78;59.71;101419.16;4962189;28;97535;-51
2021/07/23 05:02:38;;;;;;;5.97;5.40;;;21.30;99.90;;;21.78;59.68;101420.00;4965165;28;99084;-54
2021/07/23 05:05:06;;;;;;;8.00;6.67;;;21.30;99.90;;;21.77;59.53;101422.81;4959152;28;97385;-52
2021/07/23 05:07:31;;;;;;;10.33;8.13;;;21.30;99.90;;;21.74;59.33;101423.03;4932697;28;97685;-50
2021/07/23 05:09:57;;;;;;;7.77;6.93;;;21.30;99.90;;;21.68;59.77;101424.28;4958534;28;97290;-54
2021/07/23 05:12:23;;;;;;;8.47;7.67;;;21.20;99.90;;;21.64;59.71;101420.97;4964019;28;101776;-57
2021/07/23 05:14:49;;;;;;;8.60;7.80;;;21.00;99.90;;;21.61;59.54;101423.03;4950958;28;103989;-54
2021/07/23 05:17:15;;;;;;;9.13;7.70;;;21.00;99.90;;;21.55;59.63;101424.28;4966101;28;98476;-51
2021/07/23 05:19:41;;;;;;;9.33;8.43;;;20.90;99.90;;;21.49;59.72;101424.72;4935027;28;97248;-51
2021/07/23 05:22:07;;;;;;;10.60;8.83;;;20.90;99.90;;;21.37;57.32;101431.78;4955056;28;97541;-51
2021/07/23 05:24:34;;;;;;;11.23;8.73;;;20.80;99.90;;;21.34;59.21;101431.16;4947110;28;104651;-54
2021/07/23 05:27:00;;;;;;;10.50;8.60;;;20.70;99.90;;;21.27;59.02;101424.50;4949926;28;97023;-50
2021/07/23 05:29:26;;;;;;;9.47;7.63;;;20.60;99.90;;;21.23;59.75;101430.97;4952213;28;97495;-51
2021/07/23 05:31:51;;;;;;;12.50;10.00;;;20.60;99.90;;;21.17;59.31;101434.09;4963392;28;103425;-54
2021/07/23 05:34:17;;;;;;;11.37;9.07;;;20.50;99.90;;;21.06;57.81;101427.63;4931183;28;104042;-54
2021/07/23 05:36:43;;;;;;;12.13;8.73;;;20.50;99.90;;;21.06;58.83;101429.44;4946918;28;105511;-51
2021/07/23 05:39:09;;;;;;;11.53;8.37;;;20.40;99.90;;;20.94;57.80;101431.13;4952720;28;97132;-54
2021/07/23 05:41:34;;;;;;;10.57;9.13;;;20.40;99.90;;;20.96;60.72;101425.66;4952744;28;97940;-57
2021/07/23 05:44:01;;;;;;;10.00;8.53;;;20.40;99.90;;;20.98;61.02;101429.13;4964835;28;116740;-52
2021/07/23 05:46:27;;;;;;;11.03;9.73;;;20.40;99.90;;;21.02;61.27;101422.56;4960054;28;97258;-51
2021/07/23 05:48:53;;;;;;;11.87;9.67;;;20.50;99.90;;;21.06;61.53;101427.63;4971617;28;96867;-52
2021/07/23 05:51:19;;;;;;;11.03;8.60;;;20.50;99.90;;;21.09;59.79;101432.78;4955063;28;97305;-55
2021/07/23 05:53:45;;;;;;;12.93;9.10;;;20.50;99.90;;;21.12;60.89;101430.84;4964703;28;97385;-55
2021/07/23 05:56:11;;;;;;;10.33;9.23;;;20.60;99.90;;;21.13;58.17;101425.41;4965321;28;100870;-55
2021/07/23 05:58:36;;;;;;;11.80;10.60;;;20.60;99.90;;;21.04;56.38;101426.88;4960624;28;97669;-57
2021/07/23 06:01:07;;;;;;;12.13;10.07;;;20.50;99.90;;;20.92;56.12;101418.78;4948406;28;97814;-52
2021/07/23 06:03:34;;;;;;;12.03;10.00;;;20.40;99.90;;;20.87;57.13;101427.16;4957181;28;100210;-54
2021/07/23 06:06:04;;;;;;;14.17;10.07;;;20.30;99.90;;;20.82;59.58;101436.44;4936905;28;96994;-52
2021/07/23 06:08:30;;;;;;;14.37;10.67;;;20.30;99.90;;;20.74;56.85;101426.25;4951592;28;97319;-51
2021/07/23 06:10:56;;;;;;;12.70;11.20;;;20.30;99.90;;;20.65;56.97;101424.16;4972085;28;97789;-53
2021/07/23 06:13:22;;;;;;;13.43;9.70;;;20.20;99.90;;;20.79;61.90;101421.41;4971110;28;97222;-52
2021/07/23 06:15:48;;;;;;;11.03;8.97;;;20.30;99.90;;;20.83;60.91;101422.97;4943540;28;96927;-55
2021/07/23 06:18:14;;;;;;;12.40;10.33;;;20.40;99.90;;;20.91;59.60;101427.78;4952182;28;105429;-51
2021/07/23 06:20:42;;;;;;;10.00;8.30;;;20.50;99.90;;;20.99;61.63;101423.66;4951614;28;98345;-51
2021/07/23 06:23:08;;;;;;;5.67;5.17;;;20.50;99.90;;;21.10;61.31;101423.75;4952968;28;97323;-52
2021/07/23 06:25:34;;;;;;;13.97;9.83;;;20.70;99.90;;;21.20;58.81;101428.50;4957367;28;96782;-51
2021/07/23 06:28:00;;;;;;;12.83;10.13;;;20.80;99.90;;;21.28;60.76;101426.22;4936325;28;98275;-51
2021/07/23 06:30:26;;;;;;;5.60;5.10;;;20.90;99.90;;;21.38;60.50;101424.59;4952623;28;99809;-50
2021/07/23 06:32:51;;;;;;;14.03;10.63;;;21.00;99.90;;;21.44;56.58;101426.88;4934063;28;98440;-50
2021/07/23 06:35:17;;;;;;;12.00;9.73;;;21.10;99.90;;;21.48;57.20;101433.75;4947100;28;96884;-49
2021/07/23 06:37:43;;;;;;;12.20;10.17;;;21.10;99.90;;;21.54;59.68;101433.31;4943340;28;116521;-49
2021/07/23 06:40:10;;;;;;;14.03;10.20;;;21.10;99.90;;;21.59;58.97;101431.19;4959874;28;115595;-51
2021/07/23 06:42:36;;;;;;;11.27;10.10;;;21.20;99.90;;;21.62;59.69;101430.97;4951916;28;98419;-53
2021/07/23 06:45:03;;;;;;;13.63;10.63;;;21.20;99.90;;;21.58;55.03;101426.78;4948056;28;96945;-52
2021/07/23 06:47:29;;;;;;;15.63;10.70;;;21.20;99.90;;;21.59;56.97;101427.63;4952404;28;97139;-50
2021/07/23 06:49:55;;;;;;;11.73;10.50;;;21.20;99.90;;;21.60;58.11;101432.91;4943947;28;105280;-50
2021/07/23 06:52:21;;;;;;;12.67;9.73;;;21.20;99.90;;;21.57;56.13;101433.13;4928648;28;100474;-49
2021/07/23 06:54:48;;;;;;;12.27;10.27;;;21.20;99.90;;;21.56;59.55;101426.03;4962904;28;96780;-52
2021/07/23 06:57:15;;;;;;;5.17;4.57;;;21.10;99.90;;;21.59;59.72;101431.19;4950680;28;97399;-51
2021/07/23 06:59:40;;;;;;;14.97;11.23;;;21.20;99.90;;;21.53;56.27;101426.22;4964172;28;97293;-55
2021/07/23 07:02:06;;;;;;;11.77;10.57;;;21.20;99.90;;;21.48;57.25;101433.75;4958577;28;117843;-51
2021/07/23 07:04:32;;;;;;;7.43;6.60;;;21.10;99.90;;;21.51;59.57;101436.22;4939957;28;97348;-54
2021/07/23 07:06:59;;;;;;;11.67;10.40;;;21.10;99.90;;;21.48;57.42;101431.06;4948724;28;99123;-50
2021/07/23 07:09:27;;;;;;;8.47;7.17;;;21.10;99.90;;;21.46;58.91;101434.81;4939343;28;98310;-57
2021/07/23 07:11:56;;;;;;;12.40;10.60;;;21.00;99.90;;;21.58;59.33;101437.53;4960136;28;97420;-54
2021/07/23 07:14:22;;;;;;;14.10;10.93;;;21.20;99.90;;;21.51;55.82;101435.34;4952408;28;97538;-53
2021/07/23 07:16:48;;;;;;;12.60;10.40;;;21.20;99.90;;;21.52;57.03;101440.63;4961501;28;97588;-51
2021/07/23 07:19:15;;;;;;;13.40;10.40;;;21.20;99.90;;;21.57;56.42;101438.50;4966854;28;99796;-52
2021/07/23 07:21:47;;;;;;;17.97;11.83;;;21.30;99.90;;;21.49;55.61;101435.47;4958870;28;97024;-50
2021/07/23 07:24:15;;;;;;;10.77;9.77;;;21.20;99.90;;;21.57;55.47;101438.50;4935512;28;99297;-53
2021/07/23 07:26:40;;;;;;;14.17;10.30;;;21.30;99.90;;;21.57;58.24;101433.13;4965304;28;97355;-52
2021/07/23 07:29:06;;;;;;;17.37;10.97;;;21.20;99.90;;;21.67;56.09;101433.31;4946299;28;97499;-54
2021/07/23 07:31:32;;;;;;;16.37;10.53;;;21.40;99.90;;;21.66;55.74;101432.47;4942816;28;100361;-53
2021/07/23 07:33:58;;;;;;;12.90;10.53;;;21.30;99.90;;;21.69;54.93;101436.75;4958284;28;97968;-52
2021/07/23 07:36:23;;;;;;;14.77;11.27;;;21.40;99.90;;;21.73;57.11;101434.72;4959553;28;99600;-56
2021/07/23 07:38:49;;;;;;;14.40;10.27;;;21.40;99.90;;;21.63;55.59;101438.03;4945422;28;100768;-48
2021/07/23 07:41:17;;;;;;;6.20;5.60;;;21.30;99.90;;;21.77;58.97;101433.53;4911600;28;99587;-51
2021/07/23 07:43:43;;;;;;;11.90;10.70;;;21.50;99.90;;;21.88;57.67;101430.97;4946512;28;97622;-48
2021/07/23 07:46:08;;;;;;;13.73;10.97;;;21.70;99.90;;;21.87;55.50;101429.25;4956527;28;97412;-48
2021/07/23 07:48:34;;;;;;;14.93;11.20;;;21.70;99.90;;;21.81;54.94;101425.16;4932974;28;97338;-48
2021/07/23 07:51:00;;;;;;;14.43;10.50;;;21.60;99.90;;;21.73;54.95;101426.69;4966896;28;108230;-48
2021/07/23 07:53:26;;;;;;;15.20;10.30;;;21.50;99.90;;;21.62;55.32;101424.72;4934554;28;97834;-48
2021/07/23 07:55:52;;;;;;;13.90;10.63;;;21.40;99.90;;;21.68;56.95;101425.16;4944759;28;96770;-48
2021/07/23 07:58:17;;;;;;;15.10;10.90;;;21.40;99.90;;;21.69;55.23;101421.50;4951984;28;97058;-49
2021/07/23 08:00:43;;;;;;;15.37;10.87;;;21.40;99.90;;;21.77;55.80;101417.44;4946541;28;98072;-49
2021/07/23 08:03:09;;;;;;;12.83;11.23;;;21.50;99.90;;;21.74;55.16;101417.66;4932541;28;97649;-52
2021/07/23 08:05:35;;;;;;;14.83;10.80;;;21.50;99.90;;;21.80;55.60;101417.22;4932209;28;99559;-49
2021/07/23 08:08:03;;;;;;;10.23;9.13;;;21.50;99.90;;;21.89;58.37;101408.50;4928239;28;97913;-48
2021/07/23 08:10:35;;;;;;;10.97;9.60;;;21.60;99.90;;;21.99;58.04;101409.56;4945636;28;98314;-51
2021/07/23 08:13:03;;;;;;;9.93;6.63;;;21.80;99.90;;;22.10;57.74;101409.69;4954929;28;99488;-50
2021/07/23 08:15:29;;;;;;;10.63;9.63;;;22.00;99.90;;;22.17;57.46;101400.22;4936463;28;97101;-49
2021/07/23 08:17:55;;;;;;;15.27;10.53;;;22.00;99.90;;;22.22;57.23;101400.72;4954317;28;97066;-49
2021/07/23 08:20:21;;;;;;;12.83;10.20;;;22.10;99.90;;;22.21;53.82;101400.84;4962205;28;97240;-50
2021/07/23 08:22:47;;;;;;;13.93;10.67;;;22.10;99.90;;;22.21;53.75;101406.22;4942779;28;98115;-51
2021/07/23 08:25:13;;;;;;;11.03;9.93;;;22.10;99.90;;;22.17;54.19;101400.22;4948506;28;97387;-54
2021/07/23 08:27:39;;;;;;;6.10;5.50;;;22.00;99.90;;;22.23;57.44;101402.44;4929021;28;100342;-53
2021/07/23 08:30:06;;;;;;;11.43;7.77;;;22.10;99.90;;;22.34;57.15;101398.97;4950769;28;97454;-50
2021/07/23 08:32:36;;;;;;;6.10;5.20;;;22.20;99.90;;;22.42;57.02;101395.72;4946051;28;97410;-52
2021/07/23 08:35:06;;;;;;;11.83;9.87;;;22.30;99.90;;;22.50;56.77;101396.03;4964201;28;97247;-56
2021/07/23 08:37:35;;;;;;;6.40;5.87;;;22.40;99.90;;;22.55;56.64;101392.00;4948027;28;99695;-54
2021/07/23 08:40:05;;;;;;;11.10;9.90;;;22.50;99.90;;;22.59;53.85;101389.97;4955333;28;98796;-52
2021/07/23 08:42:33;;;;;;;11.30;9.60;;;22.50;99.90;;;22.61;55.81;101393.41;4929880;28;100782;-55
2021/07/23 08:45:02;;;;;;;13.37;10.40;;;22.50;99.90;;;22.57;53.80;101386.53;4963252;28;97499;-55
2021/07/23 08:47:29;;;;;;;10.43;9.07;;;22.40;99.90;;;22.61;54.33;101382.66;4940980;28;99450;-53
2021/07/23 08:49:55;;;;;;;10.50;9.40;;;22.50;99.90;;;22.62;54.39;101395.13;4948140;28;99804;-54
2021/07/23 08:52:57;;;;;;;10.70;8.83;;;22.50;99.90;;;22.72;56.15;101379.16;4927083;28;97414;-55
2021/07/23 08:55:24;;;;;;;9.20;8.27;;;22.60;99.90;;;22.71;55.67;101383.69;4925376;28;97549;-50
2021/07/23 08:57:51;;;;;;;6.80;5.40;;;22.60;99.90;;;22.74;56.01;101375.38;4920583;28;100396;-49
2021/07/23 09:00:20;;;;;;;12.37;8.97;;;22.70;99.90;;;22.79;54.89;101370.50;4936951;28;99722;-49
2021/07/23 09:02:56;;;;;;;9.57;8.57;;;22.70;99.90;;;22.84;55.40;101373.72;4938748;28;97335;-50
2021/07/23 09:05:36;;;;;;;7.47;5.23;;;22.80;99.90;;;22.83;55.71;101371.16;4965068;28;96723;-51
2021/07/23 09:08:11;;;;;;;10.00;9.00;;;22.70;99.90;;;22.86;53.83;101365.56;4944813;28;102676;-52
2021/07/23 09:10:37;;;;;;;6.03;5.40;;;22.80;99.90;;;22.78;56.01;101368.78;4959025;28;99115;-48
2021/07/23 09:13:05;;;;;;;7.23;5.90;;;22.80;99.90;;;22.70;56.26;101360.41;4934507;28;97993;-49
2021/07/23 09:15:37;;;;;;;12.47;8.40;;;22.80;99.90;;;22.78;55.96;101363.41;4934821;28;97265;-48
2021/07/23 09:18:05;;;;;;;7.10;5.37;;;22.80;99.90;;;22.87;55.84;101367.28;4943786;28;97095;-49
2021/07/23 09:20:33;;;;;;;13.10;9.47;;;22.80;99.90;;;22.91;53.49;101362.50;4929453;28;97986;-47
2021/07/23 09:23:02;;;;;;;12.53;9.77;;;22.90;99.90;;;22.96;54.68;101346.88;4938888;28;99848;-48
2021/07/23 09:25:43;;;;;;;12.40;10.23;;;22.90;99.90;;;22.94;51.95;101351.50;4929858;28;97840;-48
2021/07/23 09:28:33;;;;;;;11.37;10.07;;;22.90;99.90;;;22.95;54.72;101347.84;4955461;28;98980;-50
2021/07/23 09:31:04;;;;;;;8.43;7.23;;;22.80;99.90;;;22.93;54.09;101349.78;4933807;28;100032;-51
2021/07/23 09:33:41;;;;;;;11.57;10.00;;;22.90;99.90;;;22.96;54.90;101349.56;4954054;28;96926;-48
2021/07/23 09:36:13;;;;;;;9.43;8.43;;;22.90;99.90;;;22.98;54.88;101342.22;4962303;28;96927;-48
2021/07/23 09:38:43;;;;;;;9.03;7.83;;;22.90;99.90;;;22.98;55.02;101343.06;4928292;28;109085;-48
2021/07/23 09:41:33;;;;;;;14.53;10.87;;;23.00;99.90;;;23.00;51.25;101340.25;4934458;28;97768;-48
2021/07/23 09:44:00;;;;;;;9.33;8.40;;;23.00;99.90;;;23.02;54.80;101332.97;4936212;28;97481;-51
2021/07/23 09:46:33;;;;;;;9.13;8.10;;;23.00;99.90;;;22.98;54.67;101332.31;4946532;28;97546;-57
2021/07/23 09:49:18;;;;;;;453.60;387.53;;;23.00;99.90;;;22.93;54.92;101325.59;4952648;28;97322;-45
2021/07/23 09:51:44;;;;;;;14.83;12.10;;;22.90;99.90;;;23.00;53.15;101324.13;4947728;28;97317;-51
2021/07/23 09:54:10;;;;;;;14.37;10.40;;;23.10;99.90;;;23.12;51.23;101312.41;4951510;28;97119;-48
2021/07/23 09:56:38;;;;;;;14.73;10.43;;;23.10;99.90;;;23.17;52.30;101309.38;4950765;28;97522;-48
2021/07/23 09:59:15;;;;;;;91.97;54.03;;;23.10;99.90;;;23.15;54.54;101304.97;4942614;28;98973;-47
2021/07/23 10:01:42;;;;;;;13.60;9.60;;;23.10;99.90;;;23.17;52.42;101310.25;4953243;28;97420;-49
2021/07/23 10:04:33;;;;;;;10.63;9.57;;;23.20;99.90;;;23.24;52.42;101314.16;4941745;28;97109;-48
2021/07/23 10:07:21;;;;;;;34.23;19.93;;;23.20;99.90;;;23.23;54.38;101311.56;4947671;28;97528;-48
2021/07/23 10:09:49;;;;;;;19.00;11.43;;;23.20;99.90;;;23.22;54.49;101299.97;4959488;28;97613;-46